S50AUBURN MUNI
METARs for airports near S50, sorted by distance:
NW 8 nm 432' KSEA 280553Z 01007KT 10SM FEW250 22/11 A3009
N 9 nm 32' KRNT 280553Z 35009KT 8SM CLR 23/12 A3007
N 12 nm 21' KBFI 280553Z VRB03KT 10SM CLR 22/12 A3008
S 13 nm 537' KPLU 280615Z 00000KT 10SM CLR 19/16 A3011
W 14 nm 294' KTIW 280553Z 25003KT 10SM CLR 19/14 A3009
SW 15 nm 322' KTCM 280358Z 30003KT 10SM CLR 24/15 A3006
SW 20 nm 301' KGRF 280358Z 27006KT 10SM CLR 24/14 A3005
NW 23 nm 444' KPWT 280556Z 00000KT 10SM CLR 18/13 A3010
N 34 nm 607' KPAE 280553Z 36007KT 10SM CLR 17/09 A3011
SW 34 nm 207' KOLM 280554Z 16003KT 10SM CLR 18/12 A3010
W 37 nm 272' KSHN 280553Z 25008KT 10SM CLR 16/12 A3008
SW 49 nm 177' KCLS 280615Z 24006KT 10SM CLR 17/14 A3011
N 50 nm 141' KAWO 280556Z 35003KT 10SM FEW002 15/10 A3011
N 63 nm 47' KNUW 280556Z 00000KT 10SM SCT250 13/09 A3013
NW 68 nm 13' KNOW 280615Z 29013KT 10SM CLR 14/11 A3010
N 69 nm 145' KBVS 280615Z 00000KT 10SM SCT100 13/10 A3010
NW 70 nm 291' KCLM 280553Z 27006KT 10SM CLR 14/10 A3010
E 71 nm 1763' KELN 280553Z 32013G22KT 10SM CLR 23/12 A3004
W 73 nm 17' KHQM 280553Z 27003KT 10SM CLR 14/12 A3013
S 77 nm 20' KKLS 280556Z 33003KT 10SM CLR 19/14 A3011
NW 78 nm 112' KFHR 280553Z 36003KT 10SM CLR 11/10 A3008
E 82 nm 1248' KEAT 280555Z 33004KT 10SM CLR 25/12 A2999
SE 82 nm 1098' KYKM 280553Z 27008KT 10SM CLR 23/12 A3000
N 87 nm 34' KORS 280615Z 16006KT 10SM CLR 16/12 A3005
N 88 nm 171' KBLI 280553Z 19008KT 10SM CLR 17/14 A3007
NW 92 nm 64' CYYJ 280600Z 07002KT 20SM SKC 15/10 A3005
S 97 nm 58' KSPB 280553Z 02004KT 10SM CLR 21/12 A3005
SW 97 nm 14' KAST 280555Z 32007KT 10SM CLR 16/13 A3012
TAFs for airports near S50, sorted by distance:
NW 8 nm 432' KSEA KSEA 280539Z 2806/2912 03006KT P6SM SCT250
  FM281700 30006KT P6SM SCT250
  FM290400 01006KT P6SM SCT250
N 12 nm 21' KBFI KBFI 280539Z 2806/2906 VRB03KT P6SM SCT250
  FM281900 31006KT P6SM SCT250
SW 15 nm 322' KTCM TAF KTCM 271300Z 2721/2903 04006KT 9999 SCT250 QNH3005INS
  BECMG 2812/2813 VRB06KT 9999 SCT015 SCT250 QNH3006INS
  BECMG 2818/2819 33009KT 9999 SKC QNH3006INS TX29/2723Z TN12/2813Z
SW 20 nm 301' KGRF TAF TAF KGRF 272051Z 2721/2903 30005KT 9999 SCT150 QNH3002INS
  BECMG 2813/2814 27006KT 9999 BKN010 BKN240 QNH3015INS
  BECMG 2816/2817 35007KT 9999 BKN240 QNH3006INS TX28/2800Z TN14/2813Z
NW 23 nm 444' KPWT TAF KPWT 280539Z 2806/2906 VRB03KT P6SM SCT250
  FM281900 04008KT P6SM SCT250
N 34 nm 607' KPAE KPAE 280539Z 2806/2906 36006KT P6SM SCT250
  FM281800 32006KT P6SM SCT250
SW 34 nm 207' KOLM KOLM 280539Z 2806/2906 00000KT P6SM SCT250
  FM281300 VRB03KT 5SM BR SCT002 SCT250
  FM281500 VRB03KT P6SM SCT250
  FM282000 01006KT P6SM SCT250
N 63 nm 47' KNUW TAF TAF KNUW 2723/2823 25007KT FEW030 FEW150 SCT250 QNH3005INS
  FM280400 VRB06KT 9999 FEW030 FEW250 QNH3006INS
  TEMPO 2812/2817 21006KT 4800 BR BKN020 T18/2723Z T11/2813Z FS30028
NW 70 nm 291' KCLM KCLM 280539Z 2806/2906 29008KT P6SM SCT250
W 73 nm 17' KHQM KHQM 280539Z 2806/2906 VRB03KT P6SM SCT250
  FM280900 VRB03KT 5SM BR OVC004
  FM281200 VRB03KT 1SM BR OVC002
  FM281400 22006KT P6SM OVC005
  FM281600 26014KT P6SM SCT250
E 82 nm 1248' KEAT TAF KEAT 280520Z 2806/2906 32005KT P6SM SCT250
  FM281600 29006KT P6SM SCT250
  FM282000 VRB04KT P6SM SKC
  FM290200 35006KT P6SM SKC
SE 82 nm 1098' KYKM KYKM 280531Z 2806/2906 28008KT P6SM BKN250
  FM282000 25008KT P6SM FEW100 BKN250
  FM290400 28008KT P6SM SCT250
N 88 nm 171' KBLI KBLI 280539Z 2806/2906 19008KT P6SM SCT250
SW 97 nm 14' KAST TAF KAST 280520Z 2806/2906 31012KT P6SM SKC
  FM280800 32006KT 6SM BR SCT006 BKN011
  FM281700 32010KT P6SM FEW010 BKN250
  FM282000 32011G20KT P6SM SKC
  FM290500 31008KT P6SM BKN100

Shortcut to this page: http://wxbay.com.

Data may contain errors.